sensor_id;sensor_type;location;lat;lon;timestamp;P1;durP1;ratioP1;P2;durP2;ratioP2
59907;SDS011;61804;54.926;73.496;2022-07-29T00:01:55;7.13;;;5.95;;
59907;SDS011;61804;54.926;73.496;2022-07-29T00:04:22;6.03;;;5.32;;
59907;SDS011;61804;54.926;73.496;2022-07-29T00:06:50;6.85;;;6.15;;
59907;SDS011;61804;54.926;73.496;2022-07-29T00:09:18;6.82;;;6.18;;
59907;SDS011;61804;54.926;73.496;2022-07-29T00:11:46;11.45;;;8.13;;
59907;SDS011;61804;54.926;73.496;2022-07-29T00:14:14;8.20;;;7.47;;
59907;SDS011;61804;54.926;73.496;2022-07-29T00:16:41;6.75;;;6.15;;
59907;SDS011;61804;54.926;73.496;2022-07-29T00:19:09;8.57;;;6.35;;
59907;SDS011;61804;54.926;73.496;2022-07-29T00:21:37;5.88;;;5.32;;
59907;SDS011;61804;54.926;73.496;2022-07-29T00:24:04;6.60;;;6.10;;
59907;SDS011;61804;54.926;73.496;2022-07-29T00:26:32;8.15;;;7.40;;
59907;SDS011;61804;54.926;73.496;2022-07-29T00:29:00;7.47;;;5.40;;
59907;SDS011;61804;54.926;73.496;2022-07-29T00:31:28;7.35;;;6.57;;
59907;SDS011;61804;54.926;73.496;2022-07-29T00:33:56;6.90;;;6.28;;
59907;SDS011;61804;54.926;73.496;2022-07-29T00:36:25;6.45;;;5.85;;
59907;SDS011;61804;54.926;73.496;2022-07-29T00:38:53;6.85;;;6.10;;
59907;SDS011;61804;54.926;73.496;2022-07-29T00:41:21;6.53;;;4.60;;
59907;SDS011;61804;54.926;73.496;2022-07-29T00:43:49;5.15;;;4.75;;
59907;SDS011;61804;54.926;73.496;2022-07-29T00:46:18;3.55;;;3.25;;
59907;SDS011;61804;54.926;73.496;2022-07-29T00:48:45;3.83;;;3.53;;
59907;SDS011;61804;54.926;73.496;2022-07-29T00:51:13;4.50;;;4.10;;
59907;SDS011;61804;54.926;73.496;2022-07-29T00:53:43;3.08;;;2.78;;
59907;SDS011;61804;54.926;73.496;2022-07-29T00:56:12;6.93;;;3.25;;
59907;SDS011;61804;54.926;73.496;2022-07-29T00:58:39;3.15;;;2.85;;
59907;SDS011;61804;54.926;73.496;2022-07-29T01:01:08;3.08;;;2.78;;
59907;SDS011;61804;54.926;73.496;2022-07-29T01:03:36;5.35;;;3.28;;
59907;SDS011;61804;54.926;73.496;2022-07-29T01:06:03;3.03;;;2.55;;
59907;SDS011;61804;54.926;73.496;2022-07-29T01:08:31;2.80;;;2.05;;
59907;SDS011;61804;54.926;73.496;2022-07-29T01:11:00;2.38;;;1.98;;
59907;SDS011;61804;54.926;73.496;2022-07-29T01:13:29;4.47;;;2.90;;
59907;SDS011;61804;54.926;73.496;2022-07-29T01:15:58;2.58;;;1.70;;
59907;SDS011;61804;54.926;73.496;2022-07-29T01:18:34;1.98;;;1.73;;
59907;SDS011;61804;54.926;73.496;2022-07-29T01:31:56;2.70;;;2.42;;
59907;SDS011;61804;54.926;73.496;2022-07-29T01:34:40;3.22;;;2.65;;
59907;SDS011;61804;54.926;73.496;2022-07-29T01:37:26;2.30;;;2.15;;
59907;SDS011;61804;54.926;73.496;2022-07-29T01:39:55;3.05;;;2.75;;
59907;SDS011;61804;54.926;73.496;2022-07-29T01:42:44;4.65;;;3.47;;
59907;SDS011;61804;54.926;73.496;2022-07-29T01:48:00;7.22;;;3.95;;
59907;SDS011;61804;54.926;73.496;2022-07-29T01:50:33;4.18;;;3.78;;
59907;SDS011;61804;54.926;73.496;2022-07-29T01:53:02;4.38;;;3.55;;
59907;SDS011;61804;54.926;73.496;2022-07-29T01:55:32;4.53;;;3.85;;
59907;SDS011;61804;54.926;73.496;2022-07-29T01:58:01;6.43;;;4.07;;
59907;SDS011;61804;54.926;73.496;2022-07-29T02:00:39;4.28;;;3.80;;
59907;SDS011;61804;54.926;73.496;2022-07-29T02:03:09;5.32;;;4.43;;
59907;SDS011;61804;54.926;73.496;2022-07-29T02:05:37;10.32;;;4.82;;
59907;SDS011;61804;54.926;73.496;2022-07-29T02:08:05;13.80;;;4.85;;
59907;SDS011;61804;54.926;73.496;2022-07-29T02:10:42;7.20;;;6.53;;
59907;SDS011;61804;54.926;73.496;2022-07-29T02:13:11;11.07;;;5.45;;
59907;SDS011;61804;54.926;73.496;2022-07-29T02:15:39;6.88;;;6.28;;
59907;SDS011;61804;54.926;73.496;2022-07-29T02:18:16;6.35;;;4.85;;
59907;SDS011;61804;54.926;73.496;2022-07-29T02:20:50;3.90;;;3.60;;
59907;SDS011;61804;54.926;73.496;2022-07-29T02:23:23;5.43;;;4.35;;
59907;SDS011;61804;54.926;73.496;2022-07-29T02:25:55;5.13;;;4.63;;
59907;SDS011;61804;54.926;73.496;2022-07-29T02:28:24;4.32;;;3.63;;
59907;SDS011;61804;54.926;73.496;2022-07-29T02:30:54;4.60;;;4.20;;
59907;SDS011;61804;54.926;73.496;2022-07-29T02:33:22;10.05;;;5.05;;
59907;SDS011;61804;54.926;73.496;2022-07-29T02:35:51;9.75;;;5.38;;
59907;SDS011;61804;54.926;73.496;2022-07-29T02:38:21;7.95;;;4.95;;
59907;SDS011;61804;54.926;73.496;2022-07-29T02:41:09;7.80;;;4.90;;
59907;SDS011;61804;54.926;73.496;2022-07-29T02:43:38;9.48;;;4.55;;
59907;SDS011;61804;54.926;73.496;2022-07-29T02:46:20;4.35;;;3.95;;
59907;SDS011;61804;54.926;73.496;2022-07-29T02:48:51;5.18;;;4.68;;
59907;SDS011;61804;54.926;73.496;2022-07-29T02:51:25;4.78;;;4.13;;
59907;SDS011;61804;54.926;73.496;2022-07-29T02:53:55;6.20;;;5.55;;
59907;SDS011;61804;54.926;73.496;2022-07-29T02:56:29;5.32;;;4.82;;
59907;SDS011;61804;54.926;73.496;2022-07-29T02:59:03;7.90;;;5.03;;
59907;SDS011;61804;54.926;73.496;2022-07-29T03:01:32;6.70;;;4.47;;
59907;SDS011;61804;54.926;73.496;2022-07-29T03:04:06;5.03;;;4.10;;
59907;SDS011;61804;54.926;73.496;2022-07-29T03:06:38;5.20;;;4.70;;
59907;SDS011;61804;54.926;73.496;2022-07-29T03:09:06;6.30;;;5.07;;
59907;SDS011;61804;54.926;73.496;2022-07-29T03:11:35;3.58;;;3.25;;
59907;SDS011;61804;54.926;73.496;2022-07-29T03:14:04;4.53;;;3.55;;
59907;SDS011;61804;54.926;73.496;2022-07-29T03:16:41;3.55;;;3.05;;
59907;SDS011;61804;54.926;73.496;2022-07-29T03:19:11;3.30;;;2.63;;
59907;SDS011;61804;54.926;73.496;2022-07-29T03:21:39;3.28;;;2.60;;
59907;SDS011;61804;54.926;73.496;2022-07-29T03:24:09;3.33;;;3.03;;
59907;SDS011;61804;54.926;73.496;2022-07-29T03:26:37;3.03;;;2.80;;
59907;SDS011;61804;54.926;73.496;2022-07-29T03:29:05;4.72;;;2.38;;
59907;SDS011;61804;54.926;73.496;2022-07-29T03:31:32;6.53;;;3.25;;
59907;SDS011;61804;54.926;73.496;2022-07-29T03:33:59;2.67;;;2.47;;
59907;SDS011;61804;54.926;73.496;2022-07-29T03:36:27;2.25;;;2.05;;
59907;SDS011;61804;54.926;73.496;2022-07-29T03:38:54;2.58;;;2.38;;
59907;SDS011;61804;54.926;73.496;2022-07-29T03:41:22;2.67;;;2.47;;
59907;SDS011;61804;54.926;73.496;2022-07-29T03:43:51;6.05;;;2.92;;
59907;SDS011;61804;54.926;73.496;2022-07-29T03:46:19;3.75;;;2.90;;
59907;SDS011;61804;54.926;73.496;2022-07-29T03:48:48;4.18;;;2.33;;
59907;SDS011;61804;54.926;73.496;2022-07-29T03:51:15;6.13;;;2.83;;
59907;SDS011;61804;54.926;73.496;2022-07-29T03:53:53;2.35;;;2.15;;
59907;SDS011;61804;54.926;73.496;2022-07-29T03:56:21;3.88;;;2.60;;
59907;SDS011;61804;54.926;73.496;2022-07-29T03:58:52;3.42;;;2.28;;
59907;SDS011;61804;54.926;73.496;2022-07-29T04:01:20;3.42;;;2.75;;
59907;SDS011;61804;54.926;73.496;2022-07-29T04:03:48;5.25;;;2.95;;
59907;SDS011;61804;54.926;73.496;2022-07-29T04:06:15;6.88;;;4.13;;
59907;SDS011;61804;54.926;73.496;2022-07-29T04:08:42;17.48;;;4.05;;
59907;SDS011;61804;54.926;73.496;2022-07-29T04:11:09;8.80;;;5.03;;
59907;SDS011;61804;54.926;73.496;2022-07-29T04:13:38;7.35;;;5.40;;
59907;SDS011;61804;54.926;73.496;2022-07-29T04:16:05;7.38;;;5.15;;
59907;SDS011;61804;54.926;73.496;2022-07-29T04:18:36;8.82;;;6.63;;
59907;SDS011;61804;54.926;73.496;2022-07-29T04:21:03;8.27;;;7.07;;
59907;SDS011;61804;54.926;73.496;2022-07-29T04:23:31;10.98;;;7.13;;
59907;SDS011;61804;54.926;73.496;2022-07-29T04:26:01;12.88;;;8.07;;
59907;SDS011;61804;54.926;73.496;2022-07-29T04:28:30;22.50;;;17.20;;
59907;SDS011;61804;54.926;73.496;2022-07-29T04:30:58;22.35;;;11.00;;
59907;SDS011;61804;54.926;73.496;2022-07-29T04:33:25;14.00;;;10.13;;
59907;SDS011;61804;54.926;73.496;2022-07-29T04:35:54;10.32;;;9.32;;
59907;SDS011;61804;54.926;73.496;2022-07-29T04:38:21;12.40;;;10.55;;
59907;SDS011;61804;54.926;73.496;2022-07-29T04:40:49;14.52;;;10.10;;
59907;SDS011;61804;54.926;73.496;2022-07-29T04:43:16;16.77;;;11.77;;
59907;SDS011;61804;54.926;73.496;2022-07-29T04:45:44;13.55;;;11.77;;
59907;SDS011;61804;54.926;73.496;2022-07-29T04:48:12;11.05;;;9.85;;
59907;SDS011;61804;54.926;73.496;2022-07-29T04:50:42;18.30;;;11.90;;
59907;SDS011;61804;54.926;73.496;2022-07-29T04:53:10;17.25;;;11.35;;
59907;SDS011;61804;54.926;73.496;2022-07-29T04:55:38;13.25;;;11.63;;
59907;SDS011;61804;54.926;73.496;2022-07-29T04:58:05;11.93;;;10.63;;
59907;SDS011;61804;54.926;73.496;2022-07-29T05:00:34;16.88;;;11.10;;
59907;SDS011;61804;54.926;73.496;2022-07-29T05:03:11;13.43;;;10.32;;
59907;SDS011;61804;54.926;73.496;2022-07-29T05:05:38;15.30;;;13.07;;
59907;SDS011;61804;54.926;73.496;2022-07-29T05:08:07;12.55;;;10.00;;
59907;SDS011;61804;54.926;73.496;2022-07-29T05:10:35;21.13;;;11.43;;
59907;SDS011;61804;54.926;73.496;2022-07-29T05:13:05;23.13;;;11.27;;
59907;SDS011;61804;54.926;73.496;2022-07-29T05:15:36;31.13;;;27.05;;
59907;SDS011;61804;54.926;73.496;2022-07-29T05:18:03;14.02;;;10.77;;
59907;SDS011;61804;54.926;73.496;2022-07-29T05:20:31;13.05;;;10.27;;
59907;SDS011;61804;54.926;73.496;2022-07-29T05:23:00;12.45;;;11.25;;
59907;SDS011;61804;54.926;73.496;2022-07-29T05:25:31;12.30;;;11.00;;
59907;SDS011;61804;54.926;73.496;2022-07-29T05:27:59;17.90;;;12.68;;
59907;SDS011;61804;54.926;73.496;2022-07-29T05:30:28;11.93;;;10.77;;
59907;SDS011;61804;54.926;73.496;2022-07-29T05:32:55;10.50;;;9.70;;
59907;SDS011;61804;54.926;73.496;2022-07-29T05:35:25;9.15;;;8.25;;
59907;SDS011;61804;54.926;73.496;2022-07-29T05:37:53;9.02;;;8.05;;
59907;SDS011;61804;54.926;73.496;2022-07-29T05:40:20;9.10;;;8.20;;
59907;SDS011;61804;54.926;73.496;2022-07-29T05:42:48;9.80;;;7.95;;
59907;SDS011;61804;54.926;73.496;2022-07-29T05:45:15;10.40;;;9.23;;
59907;SDS011;61804;54.926;73.496;2022-07-29T05:47:43;10.77;;;9.82;;
59907;SDS011;61804;54.926;73.496;2022-07-29T05:50:10;9.10;;;8.27;;
59907;SDS011;61804;54.926;73.496;2022-07-29T05:52:39;10.45;;;8.77;;
59907;SDS011;61804;54.926;73.496;2022-07-29T05:55:19;8.10;;;7.20;;
59907;SDS011;61804;54.926;73.496;2022-07-29T05:57:47;11.55;;;8.98;;
59907;SDS011;61804;54.926;73.496;2022-07-29T06:00:15;10.07;;;8.60;;
59907;SDS011;61804;54.926;73.496;2022-07-29T06:02:48;9.95;;;8.88;;
59907;SDS011;61804;54.926;73.496;2022-07-29T06:05:16;10.23;;;9.38;;
59907;SDS011;61804;54.926;73.496;2022-07-29T06:07:44;19.10;;;10.60;;
59907;SDS011;61804;54.926;73.496;2022-07-29T06:10:11;10.07;;;9.13;;
59907;SDS011;61804;54.926;73.496;2022-07-29T06:12:39;14.45;;;9.13;;
59907;SDS011;61804;54.926;73.496;2022-07-29T06:15:07;16.52;;;10.93;;
59907;SDS011;61804;54.926;73.496;2022-07-29T06:17:35;24.58;;;10.77;;
59907;SDS011;61804;54.926;73.496;2022-07-29T06:20:13;18.58;;;11.00;;
59907;SDS011;61804;54.926;73.496;2022-07-29T06:22:51;19.25;;;17.52;;
59907;SDS011;61804;54.926;73.496;2022-07-29T06:25:28;11.50;;;10.32;;
59907;SDS011;61804;54.926;73.496;2022-07-29T06:27:56;10.48;;;8.90;;
59907;SDS011;61804;54.926;73.496;2022-07-29T06:30:23;8.85;;;8.02;;
59907;SDS011;61804;54.926;73.496;2022-07-29T06:32:51;12.25;;;9.13;;
59907;SDS011;61804;54.926;73.496;2022-07-29T06:35:18;9.00;;;7.82;;
59907;SDS011;61804;54.926;73.496;2022-07-29T06:37:45;9.13;;;8.23;;
59907;SDS011;61804;54.926;73.496;2022-07-29T06:40:13;15.60;;;8.55;;
59907;SDS011;61804;54.926;73.496;2022-07-29T06:43:03;8.25;;;7.55;;
59907;SDS011;61804;54.926;73.496;2022-07-29T06:45:33;10.00;;;8.10;;
59907;SDS011;61804;54.926;73.496;2022-07-29T06:48:11;9.20;;;8.43;;
59907;SDS011;61804;54.926;73.496;2022-07-29T06:50:54;11.27;;;8.85;;
59907;SDS011;61804;54.926;73.496;2022-07-29T06:53:21;8.45;;;7.65;;
59907;SDS011;61804;54.926;73.496;2022-07-29T06:55:51;9.05;;;8.23;;
59907;SDS011;61804;54.926;73.496;2022-07-29T06:58:19;18.52;;;11.13;;
59907;SDS011;61804;54.926;73.496;2022-07-29T07:00:56;12.10;;;9.13;;
59907;SDS011;61804;54.926;73.496;2022-07-29T07:03:26;10.57;;;8.30;;
59907;SDS011;61804;54.926;73.496;2022-07-29T07:05:56;9.90;;;8.32;;
59907;SDS011;61804;54.926;73.496;2022-07-29T07:08:25;11.13;;;8.45;;
59907;SDS011;61804;54.926;73.496;2022-07-29T07:10:53;8.25;;;7.50;;
59907;SDS011;61804;54.926;73.496;2022-07-29T07:13:21;11.77;;;8.73;;
59907;SDS011;61804;54.926;73.496;2022-07-29T07:15:53;10.82;;;6.95;;
59907;SDS011;61804;54.926;73.496;2022-07-29T07:18:20;11.15;;;8.38;;
59907;SDS011;61804;54.926;73.496;2022-07-29T07:20:47;15.38;;;9.05;;
59907;SDS011;61804;54.926;73.496;2022-07-29T07:23:15;8.88;;;7.97;;
59907;SDS011;61804;54.926;73.496;2022-07-29T07:25:42;12.30;;;10.40;;
59907;SDS011;61804;54.926;73.496;2022-07-29T07:28:10;9.77;;;7.97;;
59907;SDS011;61804;54.926;73.496;2022-07-29T07:30:37;14.25;;;10.50;;
59907;SDS011;61804;54.926;73.496;2022-07-29T07:33:10;10.73;;;9.73;;
59907;SDS011;61804;54.926;73.496;2022-07-29T07:35:37;12.07;;;8.50;;
59907;SDS011;61804;54.926;73.496;2022-07-29T07:38:05;13.68;;;8.50;;
59907;SDS011;61804;54.926;73.496;2022-07-29T07:40:33;18.17;;;8.80;;
59907;SDS011;61804;54.926;73.496;2022-07-29T07:43:02;15.10;;;9.27;;
59907;SDS011;61804;54.926;73.496;2022-07-29T07:45:30;16.60;;;8.90;;
59907;SDS011;61804;54.926;73.496;2022-07-29T07:48:00;17.10;;;9.48;;
59907;SDS011;61804;54.926;73.496;2022-07-29T07:50:29;31.10;;;9.20;;
59907;SDS011;61804;54.926;73.496;2022-07-29T07:52:57;9.38;;;8.35;;
59907;SDS011;61804;54.926;73.496;2022-07-29T07:55:24;8.27;;;7.40;;
59907;SDS011;61804;54.926;73.496;2022-07-29T07:57:55;14.02;;;8.65;;
59907;SDS011;61804;54.926;73.496;2022-07-29T08:00:24;10.48;;;9.38;;
59907;SDS011;61804;54.926;73.496;2022-07-29T08:02:52;7.70;;;6.85;;
59907;SDS011;61804;54.926;73.496;2022-07-29T08:05:24;8.35;;;7.60;;
59907;SDS011;61804;54.926;73.496;2022-07-29T08:07:52;12.85;;;8.20;;
59907;SDS011;61804;54.926;73.496;2022-07-29T08:10:20;12.82;;;7.85;;
59907;SDS011;61804;54.926;73.496;2022-07-29T08:13:06;12.02;;;8.77;;
59907;SDS011;61804;54.926;73.496;2022-07-29T08:15:38;21.20;;;10.07;;
59907;SDS011;61804;54.926;73.496;2022-07-29T08:18:06;8.93;;;8.05;;
59907;SDS011;61804;54.926;73.496;2022-07-29T08:20:36;12.15;;;8.63;;
59907;SDS011;61804;54.926;73.496;2022-07-29T08:23:10;34.40;;;11.38;;
59907;SDS011;61804;54.926;73.496;2022-07-29T08:25:37;13.23;;;7.75;;
59907;SDS011;61804;54.926;73.496;2022-07-29T08:28:09;9.63;;;8.45;;
59907;SDS011;61804;54.926;73.496;2022-07-29T08:30:37;8.90;;;7.43;;
59907;SDS011;61804;54.926;73.496;2022-07-29T08:33:07;16.60;;;9.20;;
59907;SDS011;61804;54.926;73.496;2022-07-29T08:35:34;12.82;;;7.50;;
59907;SDS011;61804;54.926;73.496;2022-07-29T08:38:04;14.50;;;8.48;;
59907;SDS011;61804;54.926;73.496;2022-07-29T08:40:32;10.38;;;8.10;;
59907;SDS011;61804;54.926;73.496;2022-07-29T08:43:08;10.40;;;8.80;;
59907;SDS011;61804;54.926;73.496;2022-07-29T08:48:12;8.32;;;7.53;;
59907;SDS011;61804;54.926;73.496;2022-07-29T08:50:54;8.05;;;7.25;;
59907;SDS011;61804;54.926;73.496;2022-07-29T08:53:27;10.27;;;8.98;;
59907;SDS011;61804;54.926;73.496;2022-07-29T08:55:55;8.90;;;7.68;;
59907;SDS011;61804;54.926;73.496;2022-07-29T08:58:24;11.15;;;7.35;;
59907;SDS011;61804;54.926;73.496;2022-07-29T09:00:53;8.80;;;7.93;;
59907;SDS011;61804;54.926;73.496;2022-07-29T09:03:22;11.23;;;8.25;;
59907;SDS011;61804;54.926;73.496;2022-07-29T09:05:49;7.60;;;6.93;;
59907;SDS011;61804;54.926;73.496;2022-07-29T09:08:18;7.88;;;7.28;;
59907;SDS011;61804;54.926;73.496;2022-07-29T09:10:57;8.55;;;7.75;;
59907;SDS011;61804;54.926;73.496;2022-07-29T09:13:32;13.73;;;8.88;;
59907;SDS011;61804;54.926;73.496;2022-07-29T09:16:03;9.73;;;7.35;;
59907;SDS011;61804;54.926;73.496;2022-07-29T09:21:03;14.50;;;8.57;;
59907;SDS011;61804;54.926;73.496;2022-07-29T09:26:36;10.52;;;9.50;;
59907;SDS011;61804;54.926;73.496;2022-07-29T09:29:11;10.40;;;7.93;;
59907;SDS011;61804;54.926;73.496;2022-07-29T09:31:47;9.35;;;7.35;;
59907;SDS011;61804;54.926;73.496;2022-07-29T09:34:22;25.33;;;9.77;;
59907;SDS011;61804;54.926;73.496;2022-07-29T09:36:58;6.43;;;5.93;;
59907;SDS011;61804;54.926;73.496;2022-07-29T09:39:29;7.05;;;6.07;;
59907;SDS011;61804;54.926;73.496;2022-07-29T09:42:01;14.63;;;9.18;;
59907;SDS011;61804;54.926;73.496;2022-07-29T09:44:48;12.35;;;7.22;;
59907;SDS011;61804;54.926;73.496;2022-07-29T09:47:43;10.15;;;8.35;;
59907;SDS011;61804;54.926;73.496;2022-07-29T09:50:15;8.65;;;7.63;;
59907;SDS011;61804;54.926;73.496;2022-07-29T09:52:52;8.43;;;7.32;;
59907;SDS011;61804;54.926;73.496;2022-07-29T09:55:22;9.77;;;7.40;;
59907;SDS011;61804;54.926;73.496;2022-07-29T09:57:50;17.38;;;8.52;;
59907;SDS011;61804;54.926;73.496;2022-07-29T10:00:19;10.82;;;8.05;;
59907;SDS011;61804;54.926;73.496;2022-07-29T10:02:47;11.10;;;7.28;;
59907;SDS011;61804;54.926;73.496;2022-07-29T10:05:22;17.88;;;8.82;;
59907;SDS011;61804;54.926;73.496;2022-07-29T10:08:00;24.70;;;9.25;;
59907;SDS011;61804;54.926;73.496;2022-07-29T10:12:56;15.25;;;8.85;;
59907;SDS011;61804;54.926;73.496;2022-07-29T10:15:25;13.77;;;10.63;;
59907;SDS011;61804;54.926;73.496;2022-07-29T10:17:53;8.15;;;7.35;;
59907;SDS011;61804;54.926;73.496;2022-07-29T10:20:21;13.07;;;8.27;;
59907;SDS011;61804;54.926;73.496;2022-07-29T10:22:50;17.75;;;9.93;;
59907;SDS011;61804;54.926;73.496;2022-07-29T10:25:18;11.48;;;9.18;;
59907;SDS011;61804;54.926;73.496;2022-07-29T10:27:56;19.23;;;9.68;;
59907;SDS011;61804;54.926;73.496;2022-07-29T10:30:26;13.63;;;8.77;;
59907;SDS011;61804;54.926;73.496;2022-07-29T10:43:32;13.70;;;7.55;;
59907;SDS011;61804;54.926;73.496;2022-07-29T10:46:02;19.85;;;9.90;;
59907;SDS011;61804;54.926;73.496;2022-07-29T10:48:30;16.17;;;10.52;;
59907;SDS011;61804;54.926;73.496;2022-07-29T10:51:02;13.95;;;8.88;;
59907;SDS011;61804;54.926;73.496;2022-07-29T10:53:52;15.00;;;9.80;;
59907;SDS011;61804;54.926;73.496;2022-07-29T10:56:28;20.65;;;12.55;;
59907;SDS011;61804;54.926;73.496;2022-07-29T11:01:50;12.68;;;10.77;;
59907;SDS011;61804;54.926;73.496;2022-07-29T11:07:15;12.10;;;8.48;;
59907;SDS011;61804;54.926;73.496;2022-07-29T11:09:43;18.75;;;9.30;;
59907;SDS011;61804;54.926;73.496;2022-07-29T11:14:59;10.80;;;7.60;;
59907;SDS011;61804;54.926;73.496;2022-07-29T11:17:49;9.82;;;8.70;;
59907;SDS011;61804;54.926;73.496;2022-07-29T11:20:38;14.93;;;7.22;;
59907;SDS011;61804;54.926;73.496;2022-07-29T11:31:37;9.93;;;6.70;;
59907;SDS011;61804;54.926;73.496;2022-07-29T11:34:16;8.90;;;7.88;;
59907;SDS011;61804;54.926;73.496;2022-07-29T11:45:03;7.38;;;6.57;;
59907;SDS011;61804;54.926;73.496;2022-07-29T11:47:36;13.15;;;7.47;;
59907;SDS011;61804;54.926;73.496;2022-07-29T11:50:05;15.77;;;9.07;;
59907;SDS011;61804;54.926;73.496;2022-07-29T11:52:34;7.90;;;6.75;;
59907;SDS011;61804;54.926;73.496;2022-07-29T11:55:21;10.77;;;7.05;;
59907;SDS011;61804;54.926;73.496;2022-07-29T11:57:52;12.52;;;8.55;;
59907;SDS011;61804;54.926;73.496;2022-07-29T12:00:24;18.27;;;9.95;;
59907;SDS011;61804;54.926;73.496;2022-07-29T12:02:58;8.00;;;5.57;;
59907;SDS011;61804;54.926;73.496;2022-07-29T12:05:33;10.73;;;6.80;;
59907;SDS011;61804;54.926;73.496;2022-07-29T12:08:07;9.13;;;6.78;;
59907;SDS011;61804;54.926;73.496;2022-07-29T12:10:42;26.95;;;8.32;;
59907;SDS011;61804;54.926;73.496;2022-07-29T12:13:10;7.88;;;7.28;;
59907;SDS011;61804;54.926;73.496;2022-07-29T12:15:54;14.98;;;8.13;;
59907;SDS011;61804;54.926;73.496;2022-07-29T12:18:26;8.07;;;6.40;;
59907;SDS011;61804;54.926;73.496;2022-07-29T12:20:57;16.58;;;6.93;;
59907;SDS011;61804;54.926;73.496;2022-07-29T12:23:25;8.10;;;4.95;;
59907;SDS011;61804;54.926;73.496;2022-07-29T12:25:54;8.77;;;5.80;;
59907;SDS011;61804;54.926;73.496;2022-07-29T12:28:23;10.82;;;5.47;;
59907;SDS011;61804;54.926;73.496;2022-07-29T12:30:52;11.45;;;7.10;;
59907;SDS011;61804;54.926;73.496;2022-07-29T12:33:22;9.07;;;6.93;;
59907;SDS011;61804;54.926;73.496;2022-07-29T12:35:56;11.30;;;5.25;;
59907;SDS011;61804;54.926;73.496;2022-07-29T12:38:28;8.85;;;7.05;;
59907;SDS011;61804;54.926;73.496;2022-07-29T12:43:30;30.60;;;9.63;;
59907;SDS011;61804;54.926;73.496;2022-07-29T12:46:11;8.05;;;6.38;;
59907;SDS011;61804;54.926;73.496;2022-07-29T12:48:43;11.43;;;5.90;;
59907;SDS011;61804;54.926;73.496;2022-07-29T12:51:14;11.68;;;5.28;;
59907;SDS011;61804;54.926;73.496;2022-07-29T12:56:57;15.38;;;5.13;;
59907;SDS011;61804;54.926;73.496;2022-07-29T12:59:26;9.07;;;6.32;;
59907;SDS011;61804;54.926;73.496;2022-07-29T13:01:55;6.85;;;5.50;;
59907;SDS011;61804;54.926;73.496;2022-07-29T13:04:29;12.05;;;7.30;;
59907;SDS011;61804;54.926;73.496;2022-07-29T13:07:04;18.13;;;9.55;;
59907;SDS011;61804;54.926;73.496;2022-07-29T13:09:41;11.98;;;6.40;;
59907;SDS011;61804;54.926;73.496;2022-07-29T13:12:10;8.68;;;5.05;;
59907;SDS011;61804;54.926;73.496;2022-07-29T13:14:39;7.75;;;5.50;;
59907;SDS011;61804;54.926;73.496;2022-07-29T13:17:11;11.88;;;7.05;;
59907;SDS011;61804;54.926;73.496;2022-07-29T13:19:45;12.57;;;5.82;;
59907;SDS011;61804;54.926;73.496;2022-07-29T13:22:17;10.50;;;5.15;;
59907;SDS011;61804;54.926;73.496;2022-07-29T13:24:46;9.45;;;4.70;;
59907;SDS011;61804;54.926;73.496;2022-07-29T13:27:18;10.07;;;5.47;;
59907;SDS011;61804;54.926;73.496;2022-07-29T13:29:46;14.77;;;5.47;;
59907;SDS011;61804;54.926;73.496;2022-07-29T13:32:17;8.85;;;6.32;;
59907;SDS011;61804;54.926;73.496;2022-07-29T13:34:45;8.80;;;5.07;;
59907;SDS011;61804;54.926;73.496;2022-07-29T13:37:12;4.57;;;4.18;;
59907;SDS011;61804;54.926;73.496;2022-07-29T13:39:41;5.25;;;4.47;;
59907;SDS011;61804;54.926;73.496;2022-07-29T13:42:11;11.40;;;5.88;;
59907;SDS011;61804;54.926;73.496;2022-07-29T13:44:43;5.93;;;4.85;;
59907;SDS011;61804;54.926;73.496;2022-07-29T13:47:11;10.85;;;6.10;;
59907;SDS011;61804;54.926;73.496;2022-07-29T13:49:40;6.78;;;6.03;;
59907;SDS011;61804;54.926;73.496;2022-07-29T13:52:09;7.28;;;4.68;;
59907;SDS011;61804;54.926;73.496;2022-07-29T13:54:36;23.75;;;6.53;;
59907;SDS011;61804;54.926;73.496;2022-07-29T13:57:05;9.15;;;4.75;;
59907;SDS011;61804;54.926;73.496;2022-07-29T13:59:32;21.20;;;7.50;;
59907;SDS011;61804;54.926;73.496;2022-07-29T14:02:00;8.02;;;5.38;;
59907;SDS011;61804;54.926;73.496;2022-07-29T14:04:28;12.07;;;5.45;;
59907;SDS011;61804;54.926;73.496;2022-07-29T14:06:56;9.18;;;5.43;;
59907;SDS011;61804;54.926;73.496;2022-07-29T14:09:23;12.63;;;5.18;;
59907;SDS011;61804;54.926;73.496;2022-07-29T14:11:56;7.75;;;5.07;;
59907;SDS011;61804;54.926;73.496;2022-07-29T14:14:29;5.72;;;4.53;;
59907;SDS011;61804;54.926;73.496;2022-07-29T14:16:59;16.35;;;6.20;;
59907;SDS011;61804;54.926;73.496;2022-07-29T14:19:27;7.75;;;5.68;;
59907;SDS011;61804;54.926;73.496;2022-07-29T14:21:54;16.00;;;6.95;;
59907;SDS011;61804;54.926;73.496;2022-07-29T14:24:26;11.65;;;4.93;;
59907;SDS011;61804;54.926;73.496;2022-07-29T14:26:53;13.23;;;4.93;;
59907;SDS011;61804;54.926;73.496;2022-07-29T14:29:21;6.75;;;4.70;;
59907;SDS011;61804;54.926;73.496;2022-07-29T14:31:49;6.72;;;4.63;;
59907;SDS011;61804;54.926;73.496;2022-07-29T14:34:16;8.32;;;5.63;;
59907;SDS011;61804;54.926;73.496;2022-07-29T14:36:44;18.35;;;6.18;;
59907;SDS011;61804;54.926;73.496;2022-07-29T14:39:12;5.40;;;4.32;;
59907;SDS011;61804;54.926;73.496;2022-07-29T14:41:42;18.20;;;4.95;;
59907;SDS011;61804;54.926;73.496;2022-07-29T14:44:10;24.15;;;5.35;;
59907;SDS011;61804;54.926;73.496;2022-07-29T14:46:37;7.68;;;6.40;;
59907;SDS011;61804;54.926;73.496;2022-07-29T14:49:07;11.85;;;5.57;;
59907;SDS011;61804;54.926;73.496;2022-07-29T14:51:46;11.77;;;5.57;;
59907;SDS011;61804;54.926;73.496;2022-07-29T14:54:19;13.55;;;6.68;;
59907;SDS011;61804;54.926;73.496;2022-07-29T14:56:46;14.35;;;6.75;;
59907;SDS011;61804;54.926;73.496;2022-07-29T14:59:16;7.05;;;5.40;;
59907;SDS011;61804;54.926;73.496;2022-07-29T15:01:45;7.55;;;5.30;;
59907;SDS011;61804;54.926;73.496;2022-07-29T15:04:14;13.25;;;5.57;;
59907;SDS011;61804;54.926;73.496;2022-07-29T15:06:43;17.23;;;5.28;;
59907;SDS011;61804;54.926;73.496;2022-07-29T15:09:11;5.18;;;3.75;;
59907;SDS011;61804;54.926;73.496;2022-07-29T15:11:39;6.75;;;5.30;;
59907;SDS011;61804;54.926;73.496;2022-07-29T15:14:06;13.38;;;6.07;;
59907;SDS011;61804;54.926;73.496;2022-07-29T15:16:39;8.15;;;5.43;;
59907;SDS011;61804;54.926;73.496;2022-07-29T15:19:09;9.40;;;5.47;;
59907;SDS011;61804;54.926;73.496;2022-07-29T15:21:37;8.98;;;4.18;;
59907;SDS011;61804;54.926;73.496;2022-07-29T15:24:05;10.00;;;4.22;;
59907;SDS011;61804;54.926;73.496;2022-07-29T15:26:34;7.57;;;3.03;;
59907;SDS011;61804;54.926;73.496;2022-07-29T15:29:02;6.45;;;3.95;;
59907;SDS011;61804;54.926;73.496;2022-07-29T15:31:30;11.65;;;4.25;;
59907;SDS011;61804;54.926;73.496;2022-07-29T15:33:57;4.00;;;3.60;;
59907;SDS011;61804;54.926;73.496;2022-07-29T15:36:25;4.20;;;3.80;;
59907;SDS011;61804;54.926;73.496;2022-07-29T15:38:53;10.48;;;4.55;;
59907;SDS011;61804;54.926;73.496;2022-07-29T15:41:22;7.07;;;4.22;;
59907;SDS011;61804;54.926;73.496;2022-07-29T15:43:50;6.75;;;3.75;;
59907;SDS011;61804;54.926;73.496;2022-07-29T15:46:29;4.43;;;3.55;;
59907;SDS011;61804;54.926;73.496;2022-07-29T15:49:15;7.85;;;5.03;;
59907;SDS011;61804;54.926;73.496;2022-07-29T15:51:52;3.55;;;2.90;;